Time;durP1;ratioP1;P1;durP2;ratioP2;P2;SDS_P1;SDS_P2;PMS_P1;PMS_P2;Temp;Humidity;BMP_temperature;BMP_pressure;BME280_temperature;BME280_humidity;BME280_pressure;Samples;Min_cycle;Max_cycle;Signal;HPM_P1;HPM_P2
2022/09/07 00:00:14;;;;;;;;;2.67;2.67;;;;;20.62;82.21;100908.94;5018063;28;45426;-76
2022/09/07 00:02:40;;;;;;;;;3.67;3.00;;;;;20.60;82.46;100916.47;5025970;28;47574;-76
2022/09/07 00:05:05;;;;;;;;;2.33;2.33;;;;;20.56;82.19;100910.72;5023292;28;45350;-76
2022/09/07 00:07:31;;;;;;;;;3.00;2.00;;;;;20.52;81.64;100920.34;5018111;28;45321;-76
2022/09/07 00:09:56;;;;;;;;;3.00;3.00;;;;;20.43;81.79;100913.66;5018247;28;45698;-76
2022/09/07 00:12:22;;;;;;;;;2.00;2.00;;;;;20.38;81.63;100917.06;5017814;28;46543;-76
2022/09/07 00:14:47;;;;;;;;;2.00;2.00;;;;;20.34;82.09;100920.47;5018248;28;45224;-76
2022/09/07 00:17:13;;;;;;;;;3.33;2.00;;;;;20.29;82.37;100932.78;5028778;28;45151;-76
2022/09/07 00:19:39;;;;;;;;;2.67;2.00;;;;;20.27;82.05;100934.94;5017894;28;45283;-76
2022/09/07 00:22:04;;;;;;;;;3.00;3.00;;;;;20.15;82.46;100921.44;5018026;28;45451;-76
2022/09/07 00:24:29;;;;;;;;;2.67;2.00;;;;;20.08;82.28;100912.59;5023163;28;45933;-76
2022/09/07 00:26:55;;;;;;;;;2.00;2.00;;;;;20.11;82.55;100922.13;5033705;28;45377;-76
2022/09/07 00:29:20;;;;;;;;;4.67;4.67;;;;;20.03;82.47;100918.69;5017728;28;45353;-76
2022/09/07 00:31:46;;;;;;;;;2.67;2.67;;;;;20.04;82.54;100924.94;5017967;28;45785;-76
2022/09/07 00:34:11;;;;;;;;;5.00;5.00;;;;;19.96;82.94;100919.88;5017697;28;45321;-76
2022/09/07 00:36:37;;;;;;;;;4.00;4.00;;;;;19.92;82.75;100914.94;5025152;28;45410;-76
2022/09/07 00:39:02;;;;;;;;;3.33;3.33;;;;;19.88;83.26;100910.22;5035950;28;45470;-76
2022/09/07 00:41:28;;;;;;;;;3.00;3.00;;;;;19.89;83.21;100917.25;5018055;28;45377;-76
2022/09/07 00:43:56;;;;;;;;;6.00;6.00;;;;;19.86;83.39;100913.16;5017981;28;45331;-76
2022/09/07 00:46:25;;;;;;;;;3.67;3.67;;;;;19.84;83.17;100919.84;5017846;28;45231;-76
2022/09/07 00:48:58;;;;;;;;;5.33;3.33;;;;;19.81;83.52;100924.63;5027394;28;47169;-76
2022/09/07 00:51:51;;;;;;;;;1.67;1.67;;;;;19.78;83.73;100914.31;5033449;28;46583;-76
2022/09/07 00:54:20;;;;;;;;;3.00;3.00;;;;;19.76;83.86;100919.13;5026433;28;45456;-76
2022/09/07 00:56:49;;;;;;;;;3.00;3.00;;;;;19.72;84.03;100912.53;5034363;28;45480;-76
2022/09/07 00:59:18;;;;;;;;;3.67;3.67;;;;;19.67;83.82;100918.63;5024799;28;46125;-76
2022/09/07 01:01:44;;;;;;;;;5.00;3.67;;;;;19.71;84.26;100921.69;5022237;28;46372;-76
2022/09/07 01:04:09;;;;;;;;;3.00;2.67;;;;;19.67;83.85;100920.50;5020023;28;45299;-76
2022/09/07 01:06:38;;;;;;;;;4.00;4.00;;;;;19.71;84.05;100926.25;5017583;28;45583;-76
2022/09/07 01:09:24;;;;;;;;;3.00;3.00;;;;;19.71;83.80;100920.84;5017308;28;45580;-76
2022/09/07 01:11:52;;;;;;;;;3.33;3.33;;;;;19.71;83.77;100926.25;5017112;28;45455;-76
2022/09/07 01:14:25;;;;;;;;;4.00;4.00;;;;;19.67;83.49;100915.13;5022655;28;45465;-76
2022/09/07 01:17:02;;;;;;;;;4.33;2.67;;;;;19.70;83.60;100916.53;5034301;28;45426;-76
2022/09/07 01:20:05;;;;;;;;;4.00;4.00;;;;;19.71;84.14;100926.25;5016610;28;45191;-76
2022/09/07 01:22:59;;;;;;;;;3.33;3.00;;;;;19.66;84.28;100924.25;5033603;28;47238;-76
2022/09/07 01:25:49;;;;;;;;;6.00;4.33;;;;;19.70;84.15;100920.06;5023049;28;45297;-75
2022/09/07 01:28:25;;;;;;;;;3.00;3.00;;;;;19.63;84.41;100925.53;5017496;28;45243;-76
2022/09/07 01:31:00;;;;;;;;;4.67;3.33;;;;;19.62;84.39;100917.69;5029117;28;47347;-76
2022/09/07 01:33:37;;;;;;;;;4.67;4.67;;;;;19.60;84.14;100923.28;5017166;28;46204;-76
2022/09/07 01:36:19;;;;;;;;;2.33;2.33;;;;;19.58;84.14;100927.28;5033523;28;45481;-76
2022/09/07 01:38:55;;;;;;;;;3.33;2.67;;;;;19.52;83.93;100919.06;5025406;28;45364;-77
2022/09/07 01:41:28;;;;;;;;;4.33;4.00;;;;;19.44;84.31;100919.41;5016925;28;45468;-76
2022/09/07 01:44:17;;;;;;;;;5.00;5.00;;;;;19.49;84.64;100924.09;5017223;28;46637;-76
2022/09/07 01:46:52;;;;;;;;;6.00;6.00;;;;;19.42;84.76;100914.22;5017252;28;45407;-76
2022/09/07 01:49:32;;;;;;;;;4.33;4.33;;;;;19.45;84.21;100917.53;5016950;28;45389;-76
2022/09/07 01:52:04;;;;;;;;;4.67;4.67;;;;;19.44;84.74;100905.91;5030747;28;45212;-76
2022/09/07 01:54:44;;;;;;;;;5.00;4.00;;;;;19.40;84.95;100907.44;5016837;28;46544;-76
2022/09/07 01:57:18;;;;;;;;;7.33;5.00;;;;;19.39;84.41;100905.78;5016818;28;45388;-76
2022/09/07 02:00:01;;;;;;;;;5.33;4.33;;;;;19.38;84.63;100912.22;5025015;28;45500;-76
2022/09/07 02:02:38;;;;;;;;;3.00;3.00;;;;;19.36;84.78;100903.56;5016827;28;45260;-76
2022/09/07 02:05:08;;;;;;;;;4.33;3.67;;;;;19.35;84.52;100915.38;5016651;28;45446;-76
2022/09/07 02:08:09;;;;;;;;;4.00;4.00;;;;;19.32;84.74;100918.53;5015379;28;45404;-77
2022/09/07 02:10:40;;;;;;;;;5.00;3.00;;;;;19.24;84.97;100904.31;5016426;28;45427;-76
2022/09/07 02:13:22;;;;;;;;;4.67;4.33;;;;;19.23;85.19;100908.06;5016530;28;45379;-76
2022/09/07 02:16:13;;;;;;;;;3.00;3.00;;;;;19.20;84.85;100900.44;5032157;28;46957;-76
2022/09/07 02:18:46;;;;;;;;;4.00;4.00;;;;;19.09;84.90;100888.56;5051136;28;45320;-76
2022/09/07 02:21:15;;;;;;;;;5.33;3.67;;;;;19.15;84.79;100900.28;5016934;28;45313;-76
2022/09/07 02:23:50;;;;;;;;;5.33;5.00;;;;;19.11;84.47;100909.91;5016486;28;45529;-76
2022/09/07 02:26:19;;;;;;;;;4.33;4.00;;;;;19.09;85.24;100901.25;5022358;28;47245;-76
2022/09/07 02:28:46;;;;;;;;;5.00;3.00;;;;;19.09;85.38;100903.94;5022704;28;45334;-76
2022/09/07 02:31:11;;;;;;;;;5.33;3.33;;;;;19.06;85.18;100915.94;5015026;28;45400;-76
2022/09/07 02:33:37;;;;;;;;;4.00;4.00;;;;;19.05;85.40;100916.97;5014988;28;45782;-76
2022/09/07 02:36:04;;;;;;;;;8.33;6.00;;;;;19.07;85.11;100917.59;5016460;28;45421;-76
2022/09/07 02:38:30;;;;;;;;;5.00;4.00;;;;;19.08;85.40;100918.44;5016516;28;45372;-76
2022/09/07 02:40:58;;;;;;;;;3.33;3.33;;;;;19.06;85.28;100918.63;5027838;28;45455;-76
2022/09/07 02:43:24;;;;;;;;;4.00;4.00;;;;;19.10;85.27;100909.09;5023172;28;47054;-76
2022/09/07 02:46:08;;;;;;;;;6.00;4.00;;;;;19.11;85.58;100907.19;5022248;28;45597;-76
2022/09/07 02:49:26;;;;;;;;;5.00;5.00;;;;;19.11;85.50;100905.34;5023483;28;45324;-76
2022/09/07 02:52:10;;;;;;;;;4.00;4.00;;;;;19.11;85.46;100909.91;5029318;27;45527;-76
2022/09/07 02:55:02;;;;;;;;;4.33;3.67;;;;;19.10;85.62;100905.56;5014763;28;46243;-76
2022/09/07 02:57:58;;;;;;;;;1.00;1.00;;;;;19.04;85.53;100900.00;5014561;28;46611;-76
2022/09/07 03:00:25;;;;;;;;;3.33;3.33;;;;;18.97;85.17;100903.84;5014469;28;45266;-76
2022/09/07 03:03:05;;;;;;;;;4.00;4.00;;;;;19.00;85.06;100908.75;5016288;28;45303;-76
2022/09/07 03:05:42;;;;;;;;;4.33;4.00;;;;;18.96;85.36;100913.78;5015419;28;45547;-76
2022/09/07 03:08:14;;;;;;;;;6.00;5.00;;;;;18.95;85.10;100914.84;5025844;28;48080;-76
2022/09/07 03:10:41;;;;;;;;;4.00;3.00;;;;;18.94;85.08;100907.78;5016777;28;45307;-76
2022/09/07 03:13:06;;;;;;;;;5.67;5.00;;;;;18.85;85.05;100903.78;5015785;28;45413;-76
2022/09/07 03:15:31;;;;;;;;;4.00;4.00;;;;;18.95;85.07;100917.53;5028264;28;46439;-76
2022/09/07 03:17:57;;;;;;;;;5.00;5.00;;;;;18.93;84.87;100916.94;5026497;28;45395;-76
2022/09/07 03:20:22;;;;;;;;;5.00;5.00;;;;;18.87;85.06;100910.56;5015411;28;45293;-76
2022/09/07 03:22:49;;;;;;;;;5.33;5.33;;;;;18.85;85.23;100917.25;5015943;28;45290;-76
2022/09/07 03:25:16;;;;;;;;;4.00;4.00;;;;;18.81;85.38;100927.63;5015775;28;45438;-76
2022/09/07 03:27:42;;;;;;;;;4.00;4.00;;;;;18.80;85.89;100926.00;5015327;28;45237;-76
2022/09/07 03:30:09;;;;;;;;;5.00;5.00;;;;;18.79;85.83;100927.03;5021779;28;45767;-76
2022/09/07 03:32:36;;;;;;;;;6.00;6.00;;;;;18.75;86.21;100921.28;5015467;28;45286;-76
2022/09/07 03:35:03;;;;;;;;;4.00;4.00;;;;;18.78;86.07;100917.31;5023162;28;47484;-77
2022/09/07 03:37:28;;;;;;;;;4.33;4.33;;;;;18.70;85.94;100921.13;5019799;28;46551;-76
2022/09/07 03:39:54;;;;;;;;;6.00;6.00;;;;;18.66;85.62;100930.69;5015506;28;45399;-76
2022/09/07 03:42:20;;;;;;;;;5.67;5.00;;;;;18.64;86.00;100922.84;5016042;28;45284;-76
2022/09/07 03:44:47;;;;;;;;;5.00;5.00;;;;;18.62;85.91;100916.06;5018549;28;45675;-77
2022/09/07 03:47:13;;;;;;;;;7.00;6.00;;;;;18.58;85.76;100909.47;5018462;28;46241;-77
2022/09/07 03:49:38;;;;;;;;;5.33;5.33;;;;;18.57;85.48;100919.41;5018130;28;45332;-77
2022/09/07 03:52:03;;;;;;;;;5.00;5.00;;;;;18.60;85.35;100927.03;5036559;28;45423;-76
2022/09/07 03:54:29;;;;;;;;;8.00;6.33;;;;;18.54;85.33;100920.69;5026814;28;45515;-76
2022/09/07 03:56:54;;;;;;;;;4.33;4.00;;;;;18.50;85.71;100924.84;5018504;28;46539;-76
2022/09/07 03:59:20;;;;;;;;;6.00;6.00;;;;;18.42;85.50;100914.38;5026224;28;45314;-76
2022/09/07 04:01:45;;;;;;;;;7.00;5.00;;;;;18.42;85.84;100917.91;5021662;28;45267;-76
2022/09/07 04:04:10;;;;;;;;;7.00;7.00;;;;;18.45;86.08;100924.72;5018149;28;45390;-76
2022/09/07 04:06:36;;;;;;;;;4.33;4.33;;;;;18.40;86.16;100928.06;5018235;28;45817;-77
2022/09/07 04:09:03;;;;;;;;;5.67;5.67;;;;;18.42;86.38;100933.22;5017977;28;45420;-76
2022/09/07 04:11:28;;;;;;;;;5.67;5.67;;;;;18.40;86.35;100933.44;5018152;28;45513;-76
2022/09/07 04:13:54;;;;;;;;;7.00;7.00;;;;;18.47;86.23;100946.00;5018300;28;45512;-76
2022/09/07 04:16:24;;;;;;;;;7.67;5.33;;;;;18.45;86.43;100948.91;5024240;28;46521;-76
2022/09/07 04:18:53;;;;;;;;;5.00;5.00;;;;;18.43;86.00;100942.94;5051358;28;45448;-76
2022/09/07 04:21:20;;;;;;;;;6.67;6.67;;;;;18.41;86.07;100937.75;5018336;28;45388;-76
2022/09/07 04:23:46;;;;;;;;;4.00;4.00;;;;;18.45;86.18;100948.09;5047295;28;46538;-76
2022/09/07 04:26:23;;;;;;;;;5.67;5.67;;;;;18.44;86.04;100949.97;5031370;28;45282;-77
2022/09/07 04:28:49;;;;;;;;;6.67;5.00;;;;;18.37;85.97;100949.19;5018010;28;45275;-77
2022/09/07 04:31:17;;;;;;;;;4.33;4.33;;;;;18.35;85.40;100954.00;5018141;28;45325;-77
2022/09/07 04:33:47;;;;;;;;;8.67;6.00;;;;;18.37;85.50;100968.03;5017673;28;45455;-77
2022/09/07 04:36:14;;;;;;;;;4.00;4.00;;;;;18.37;85.54;100965.34;5017583;28;46464;-76
2022/09/07 04:38:40;;;;;;;;;4.33;4.33;;;;;18.27;85.82;100966.69;5017564;28;45265;-76
2022/09/07 04:41:08;;;;;;;;;4.33;4.33;;;;;18.28;86.00;100971.00;5017939;28;45329;-77
2022/09/07 04:43:35;;;;;;;;;4.00;4.00;;;;;18.29;85.92;100971.84;5017820;28;45510;-77
2022/09/07 04:46:09;;;;;;;;;5.00;5.00;;;;;18.24;86.47;100974.34;5047025;28;47205;-77
2022/09/07 04:48:35;;;;;;;;;5.33;5.33;;;;;18.25;85.92;100974.13;5028907;28;45468;-77
2022/09/07 04:51:08;;;;;;;;;3.00;3.00;;;;;18.22;85.85;100979.13;5032780;28;45348;-76
2022/09/07 04:53:35;;;;;;;;;6.67;6.33;;;;;18.18;85.81;100970.69;5019075;28;45543;-76
2022/09/07 04:56:01;;;;;;;;;7.00;7.00;;;;;18.25;86.38;100984.91;5016954;28;45692;-76
2022/09/07 04:58:26;;;;;;;;;6.00;6.00;;;;;18.25;86.49;100974.13;5034006;28;45240;-77
2022/09/07 05:00:52;;;;;;;;;6.00;6.00;;;;;18.28;86.39;100970.19;5028050;28;45305;-76
2022/09/07 05:03:17;;;;;;;;;7.67;7.67;;;;;18.27;86.45;100972.06;5017536;28;45478;-80
2022/09/07 05:05:43;;;;;;;;;5.33;5.00;;;;;18.27;86.51;100960.47;5040287;28;47528;-77
2022/09/07 05:08:10;;;;;;;;;5.33;5.33;;;;;18.34;86.77;100973.84;5036165;28;45294;-77
2022/09/07 05:10:35;;;;;;;;;8.00;6.67;;;;;18.35;86.65;100975.50;5032780;28;45369;-78
2022/09/07 05:13:01;;;;;;;;;5.67;5.67;;;;;18.36;86.63;100982.53;5044354;27;45792;-78
2022/09/07 05:15:30;;;;;;;;;5.33;5.33;;;;;18.41;86.43;100980.03;5032767;28;47043;-77
2022/09/07 05:17:56;;;;;;;;;3.67;3.67;;;;;18.41;86.25;100969.25;5026595;28;45420;-77
2022/09/07 05:20:22;;;;;;;;;5.00;5.00;;;;;18.44;85.86;100978.75;5029988;28;45440;-77
2022/09/07 05:22:51;;;;;;;;;6.00;4.33;;;;;18.46;86.00;100973.97;5024438;28;47041;-77
2022/09/07 05:25:17;;;;;;;;;5.67;5.67;;;;;18.45;85.96;100978.53;5021364;28;45476;-76
2022/09/07 05:27:42;;;;;;;;;7.00;6.00;;;;;18.46;85.86;100973.97;5020692;28;45327;-77
2022/09/07 05:30:08;;;;;;;;;5.67;5.67;;;;;18.51;85.89;100974.13;5015831;28;45326;-77
2022/09/07 05:32:33;;;;;;;;;4.00;4.00;;;;;18.54;85.59;100974.50;5025601;28;45674;-76
2022/09/07 05:34:59;;;;;;;;;8.00;6.33;;;;;18.58;85.80;100979.44;5021236;28;45426;-76
2022/09/07 05:37:24;;;;;;;;;6.00;6.00;;;;;18.53;85.99;100983.59;5018825;28;45268;-78
2022/09/07 05:39:53;;;;;;;;;6.67;5.00;;;;;18.58;86.13;100980.25;5017096;28;45348;-78
2022/09/07 05:42:19;;;;;;;;;7.00;4.67;;;;;18.58;85.79;100980.25;5017245;28;45627;-78
2022/09/07 05:44:44;;;;;;;;;5.00;5.00;;;;;18.57;86.24;100980.47;5017115;28;46281;-77
2022/09/07 05:47:09;;;;;;;;;6.33;6.33;;;;;18.60;85.88;100993.50;5016850;28;45430;-77
2022/09/07 05:49:35;;;;;;;;;5.33;5.33;;;;;18.64;86.01;100992.00;5022136;28;45337;-78
2022/09/07 05:52:00;;;;;;;;;7.33;6.00;;;;;18.64;86.15;101000.06;5024004;28;46165;-78
2022/09/07 05:54:25;;;;;;;;;5.67;5.67;;;;;18.74;86.44;100992.31;5023108;28;47017;-77
2022/09/07 05:56:51;;;;;;;;;4.67;4.67;;;;;18.78;86.18;100985.44;5025461;28;45495;-78
2022/09/07 05:59:16;;;;;;;;;6.67;6.67;;;;;18.86;86.29;100992.38;5017066;28;45283;-80
2022/09/07 06:01:41;;;;;;;;;4.00;4.00;;;;;18.89;86.03;100985.75;5025125;28;47263;-79
2022/09/07 06:04:07;;;;;;;;;6.00;5.33;;;;;18.98;86.18;100983.56;5021144;28;46569;-78
2022/09/07 06:06:37;;;;;;;;;4.67;4.67;;;;;18.99;86.06;100982.53;5016777;28;45394;-79
2022/09/07 06:09:02;;;;;;;;;5.67;5.67;;;;;19.03;86.03;100987.22;5016988;28;45206;-79
2022/09/07 06:11:27;;;;;;;;;7.00;7.00;;;;;19.01;86.20;100994.69;5037899;28;45974;-79
2022/09/07 06:13:53;;;;;;;;;9.33;7.67;;;;;19.01;86.77;100988.50;5024632;28;45431;-78
2022/09/07 06:16:19;;;;;;;;;7.33;7.33;;;;;18.99;86.44;100991.44;5018776;28;45284;-77
2022/09/07 06:18:46;;;;;;;;;5.67;5.33;;;;;19.01;86.67;100994.69;5016958;28;45283;-78
2022/09/07 06:21:14;;;;;;;;;5.67;5.00;;;;;19.02;85.74;101001.75;5029340;28;47015;-77
2022/09/07 06:23:41;;;;;;;;;6.33;5.67;;;;;18.94;85.38;100991.28;5016579;28;46284;-77
2022/09/07 06:26:07;;;;;;;;;6.00;5.00;;;;;18.93;85.74;101003.94;5016488;28;45164;-77
2022/09/07 06:28:41;;;;;;;;;5.67;4.67;;;;;19.00;85.78;101003.00;5022034;28;45303;-77
2022/09/07 06:31:12;;;;;;;;;6.67;5.33;;;;;18.95;85.93;100998.31;5022549;28;45468;-77
2022/09/07 06:33:39;;;;;;;;;5.00;5.00;;;;;18.86;85.23;100987.00;5016199;28;45356;-78
2022/09/07 06:36:09;;;;;;;;;5.00;5.00;;;;;18.85;85.38;100993.44;5016808;28;45350;-77
2022/09/07 06:38:36;;;;;;;;;6.67;6.67;;;;;18.90;85.67;101000.84;5016737;28;45368;-78
2022/09/07 06:41:01;;;;;;;;;4.00;4.00;;;;;18.95;85.89;101002.88;5025622;28;46417;-77
2022/09/07 06:43:27;;;;;;;;;6.00;6.00;;;;;18.89;85.96;100997.31;5031482;28;47166;-78
2022/09/07 06:45:53;;;;;;;;;6.00;5.00;;;;;18.93;85.90;100995.03;5020218;28;45351;-78
2022/09/07 06:48:19;;;;;;;;;9.67;7.00;;;;;18.88;85.87;100989.47;5016144;28;45458;-79
2022/09/07 06:50:57;;;;;;;;;8.00;8.00;;;;;18.97;85.83;101004.28;5023549;28;46430;-79
2022/09/07 06:53:23;;;;;;;;;6.00;6.00;;;;;18.99;86.40;101007.59;5017613;28;47254;-80
2022/09/07 06:55:48;;;;;;;;;5.33;4.33;;;;;18.99;86.41;101001.38;5016073;28;45308;-79
2022/09/07 06:58:14;;;;;;;;;6.00;6.00;;;;;19.03;86.24;101007.94;5016087;28;45689;-78
2022/09/07 07:00:39;;;;;;;;;6.00;5.00;;;;;19.00;86.19;101009.22;5016216;28;45248;-79
2022/09/07 07:03:04;;;;;;;;;6.00;6.00;;;;;19.08;86.75;101024.31;5016092;28;45455;-79
2022/09/07 07:05:30;;;;;;;;;7.67;6.00;;;;;19.07;86.66;101016.41;5015817;28;45427;-80
2022/09/07 07:07:56;;;;;;;;;6.00;5.67;;;;;19.09;86.99;101011.66;5016271;28;45215;-79
2022/09/07 07:10:21;;;;;;;;;6.33;6.33;;;;;19.17;86.60;101020.28;5027572;28;46732;-79
2022/09/07 07:12:47;;;;;;;;;6.67;5.67;;;;;19.20;86.39;101010.06;5015732;28;46422;-79
2022/09/07 07:15:12;;;;;;;;;9.00;7.67;;;;;19.24;86.74;101003.22;5019755;28;45263;-80
2022/09/07 07:17:37;;;;;;;;;7.67;7.67;;;;;19.32;86.45;101004.75;5026222;28;45881;-79
2022/09/07 07:20:03;;;;;;;;;6.00;6.00;;;;;19.39;86.90;101008.19;5018809;28;45472;-77
2022/09/07 07:22:28;;;;;;;;;18.00;16.67;;;;;19.40;86.09;100991.78;5018466;28;45982;-76
2022/09/07 07:24:54;;;;;;;;;14.00;13.33;;;;;19.51;86.31;101003.66;5025531;28;45670;-76
2022/09/07 07:27:20;;;;;;;;;5.00;5.00;;;;;19.58;86.90;101002.75;5018806;28;45464;-79
2022/09/07 07:29:46;;;;;;;;;5.00;5.00;;;;;19.64;86.78;101005.34;5018662;28;45295;-78
2022/09/07 07:32:11;;;;;;;;;6.00;6.00;;;;;19.70;86.51;100998.25;5018609;28;45420;-78
2022/09/07 07:34:36;;;;;;;;;9.67;7.00;;;;;19.76;86.32;101005.41;5017523;28;45268;-77
2022/09/07 07:37:02;;;;;;;;;6.00;6.00;;;;;19.86;86.52;101001.31;5017422;28;45334;-78
2022/09/07 07:39:27;;;;;;;;;7.00;5.33;;;;;19.91;86.02;101007.66;5018183;28;45264;-77
2022/09/07 07:41:52;;;;;;;;;6.00;6.00;;;;;19.97;85.77;100994.31;5018580;28;45242;-78
2022/09/07 07:44:19;;;;;;;;;6.00;6.00;;;;;20.04;85.77;101005.84;5018532;28;45402;-78
2022/09/07 07:46:49;;;;;;;;;10.00;8.67;;;;;20.11;85.83;101011.16;5026421;28;45257;-78
2022/09/07 07:49:14;;;;;;;;;6.67;6.67;;;;;20.12;85.83;100991.22;5020488;28;45483;-78
2022/09/07 07:51:40;;;;;;;;;6.33;6.33;;;;;20.16;84.60;100992.38;5028050;28;47933;-78
2022/09/07 07:54:05;;;;;;;;;4.00;4.00;;;;;20.21;85.07;100976.34;5017927;28;45348;-78
2022/09/07 07:56:30;;;;;;;;;6.33;5.33;;;;;20.31;85.22;100990.06;5027740;28;45397;-78
2022/09/07 07:58:56;;;;;;;;;7.00;5.67;;;;;20.33;85.40;100987.13;5022695;28;45475;-77
2022/09/07 08:01:21;;;;;;;;;7.67;6.67;;;;;20.38;85.38;100981.03;5033487;28;46943;-78
2022/09/07 08:03:47;;;;;;;;;6.33;6.33;;;;;20.49;85.39;100987.47;5017855;28;45299;-77
2022/09/07 08:06:16;;;;;;;;;9.33;7.00;;;;;20.53;85.13;100984.06;5018488;28;45317;-78
2022/09/07 08:08:43;;;;;;;;;5.00;4.00;;;;;20.64;85.17;100982.44;5030658;28;46233;-78
2022/09/07 08:11:11;;;;;;;;;4.67;4.67;;;;;20.61;85.31;100968.56;5017946;28;46433;-78
2022/09/07 08:13:39;;;;;;;;;7.33;6.00;;;;;20.78;84.89;100985.72;5030644;28;45921;-78
2022/09/07 08:16:04;;;;;;;;;5.67;5.67;;;;;20.80;85.07;100972.78;5022375;28;45344;-78
2022/09/07 08:18:32;;;;;;;;;6.33;6.00;;;;;20.82;84.96;100977.94;5053142;28;46546;-78
2022/09/07 08:21:00;;;;;;;;;8.00;6.33;;;;;20.86;84.20;100976.41;5018270;28;46478;-78
2022/09/07 08:23:26;;;;;;;;;6.00;4.33;;;;;20.89;83.90;100972.41;5018060;28;45455;-78
2022/09/07 08:25:52;;;;;;;;;6.67;6.67;;;;;20.94;83.83;100973.38;5034621;28;45428;-78
2022/09/07 08:28:18;;;;;;;;;6.67;5.33;;;;;20.88;83.34;100984.25;5028051;28;45326;-78
2022/09/07 08:30:43;;;;;;;;;8.00;7.67;;;;;20.86;83.13;100976.41;5016523;28;46666;-78
2022/09/07 08:33:09;;;;;;;;;6.00;6.00;;;;;20.90;82.78;100984.88;5016623;28;45269;-78
2022/09/07 08:35:34;;;;;;;;;7.00;6.00;;;;;20.91;83.44;100987.34;5018168;28;45156;-78
2022/09/07 08:37:59;;;;;;;;;8.33;7.00;;;;;20.97;83.97;100982.03;5017804;28;45247;-78
2022/09/07 08:40:25;;;;;;;;;7.67;6.67;;;;;20.98;83.83;100979.09;5017917;28;46252;-78
2022/09/07 08:43:19;;;;;;;;;9.67;7.67;;;;;21.09;83.48;100974.72;5017826;28;45364;-78
2022/09/07 08:45:53;;;;;;;;;6.67;5.67;;;;;21.15;83.76;100967.53;5030381;28;45365;-78
2022/09/07 08:48:28;;;;;;;;;9.00;9.00;;;;;21.21;83.94;100969.28;5032690;28;46589;-78
2022/09/07 08:50:59;;;;;;;;;7.00;7.00;;;;;21.36;83.68;100976.03;5027307;28;45401;-78
2022/09/07 08:53:25;;;;;;;;;5.33;4.00;;;;;21.39;83.69;100980.97;5033293;28;46122;-77
2022/09/07 08:55:59;;;;;;;;;8.67;7.00;;;;;21.42;82.78;100978.63;5016694;28;45378;-78
2022/09/07 08:58:30;;;;;;;;;5.00;5.00;;;;;21.59;82.33;100987.81;5028734;28;45472;-78
2022/09/07 09:00:56;;;;;;;;;9.33;9.33;;;;;21.60;83.09;100984.06;5017866;28;45907;-75
2022/09/07 09:03:26;;;;;;;;;5.00;5.00;;;;;21.66;82.68;100994.72;5017379;28;45648;-75
2022/09/07 09:06:45;;;;;;;;;7.33;4.67;;;;;21.67;82.67;100984.75;5033181;27;45369;-75
2022/09/07 09:09:29;;;;;;;;;6.00;5.00;;;;;21.84;82.79;100992.09;4983264;28;47144;-75
2022/09/07 09:12:32;;;;;;;;;5.33;5.00;;;;;21.92;82.61;100995.22;5013242;28;45374;-75
2022/09/07 09:15:29;;;;;;;;;5.67;5.67;;;;;22.04;82.29;100992.44;5017289;28;45286;-75
2022/09/07 09:18:03;;;;;;;;;7.33;7.33;;;;;22.13;82.50;100983.88;5022396;28;45368;-74
2022/09/07 09:20:39;;;;;;;;;4.00;4.00;;;;;22.24;81.73;100965.94;5036416;27;45353;-75
2022/09/07 09:23:14;;;;;;;;;6.00;5.00;;;;;22.28;81.94;100953.53;5026862;28;45436;-74
2022/09/07 09:26:21;;;;;;;;;4.67;4.00;;;;;22.37;80.74;100946.63;5031690;28;45352;-75
2022/09/07 09:28:46;;;;;;;;;5.33;5.00;;;;;22.43;81.28;100937.53;5025289;28;45305;-75
2022/09/07 09:31:17;;;;;;;;;4.33;4.00;;;;;22.43;80.50;100933.97;5021186;28;45441;-75
2022/09/07 09:33:42;;;;;;;;;4.67;4.00;;;;;22.52;80.86;100945.22;5023705;28;47976;-74
2022/09/07 09:36:24;;;;;;;;;4.00;4.00;;;;;22.59;79.71;100947.78;5022693;28;45472;-78
2022/09/07 09:38:50;;;;;;;;;5.33;5.00;;;;;22.62;79.14;100945.38;5016117;28;45465;-75
2022/09/07 09:41:15;;;;;;;;;5.00;4.33;;;;;22.61;79.04;100935.63;5016019;28;45357;-77
2022/09/07 09:43:55;;;;;;;;;4.00;4.00;;;;;22.61;78.86;100926.66;5031324;28;46380;-77
2022/09/07 09:46:27;;;;;;;;;6.00;6.00;;;;;22.71;78.86;100940.34;5031094;28;45348;-76
2022/09/07 09:49:16;;;;;;;;;6.33;6.00;;;;;22.69;79.07;100939.78;5016939;28;45226;-76
2022/09/07 09:51:45;;;;;;;;;4.00;4.00;;;;;22.64;79.56;100942.41;5029306;28;46274;-77
2022/09/07 09:54:21;;;;;;;;;6.00;6.00;;;;;22.70;79.20;100965.78;5016682;28;46638;-75
2022/09/07 09:56:48;;;;;;;;;5.33;5.33;;;;;22.69;80.00;100964.16;5029267;28;45252;-77
2022/09/07 09:59:16;;;;;;;;;5.67;5.00;;;;;22.74;79.59;100950.66;5016861;28;45337;-75
2022/09/07 10:01:43;;;;;;;;;6.00;5.33;;;;;22.71;78.90;100943.03;5016505;28;45389;-76
2022/09/07 10:04:32;;;;;;;;;6.67;5.33;;;;;22.79;79.87;100948.03;5016733;28;46585;-78
2022/09/07 10:07:18;;;;;;;;;6.00;5.33;;;;;22.83;79.36;100943.75;5029288;28;45368;-77
2022/09/07 10:09:49;;;;;;;;;7.00;7.00;;;;;22.92;77.74;100941.41;5026201;28;45852;-77
2022/09/07 10:12:35;;;;;;;;;5.67;4.67;;;;;22.95;78.73;100935.47;5018423;28;45485;-75
2022/09/07 10:15:04;;;;;;;;;4.00;4.00;;;;;23.06;77.53;100941.84;5027638;28;47618;-76
2022/09/07 10:17:32;;;;;;;;;6.00;6.00;;;;;23.14;78.01;100939.75;5031737;28;46140;-76
2022/09/07 10:20:18;;;;;;;;;9.67;7.00;;;;;23.20;77.82;100926.00;5016584;28;45384;-77
2022/09/07 10:22:50;;;;;;;;;8.00;8.00;;;;;23.25;76.64;100917.09;5016332;28;45674;-77
2022/09/07 10:25:46;;;;;;;;;9.00;8.67;;;;;23.38;76.52;100917.78;5016632;28;45495;-77
2022/09/07 10:28:20;;;;;;;;;8.00;6.33;;;;;23.42;77.44;100910.78;5017138;28;45347;-77
2022/09/07 10:31:10;;;;;;;;;6.33;5.67;;;;;23.60;76.72;100916.88;5016516;28;45503;-74
2022/09/07 10:33:52;;;;;;;;;5.33;5.00;;;;;23.70;75.99;100920.50;5016212;28;45348;-74
2022/09/07 10:36:39;;;;;;;;;7.67;6.00;;;;;23.78;75.72;100919.22;5034635;28;47031;-77
2022/09/07 10:39:16;;;;;;;;;4.00;4.00;;;;;23.87;75.54;100913.31;5031614;28;45324;-75
2022/09/07 10:41:58;;;;;;;;;6.00;6.00;;;;;23.96;75.67;100914.47;5016439;28;45338;-75
2022/09/07 10:44:54;;;;;;;;;8.67;6.00;;;;;24.04;75.37;100905.84;5016076;28;45465;-75
2022/09/07 10:47:22;;;;;;;;;4.33;3.67;;;;;24.15;73.23;100909.47;5016190;28;45392;-77
2022/09/07 10:50:06;;;;;;;;;8.00;6.00;;;;;24.14;72.59;100902.41;5015849;28;45289;-76
2022/09/07 10:52:48;;;;;;;;;7.00;7.00;;;;;24.22;74.24;100914.66;5024198;28;45311;-78
2022/09/07 10:55:26;;;;;;;;;7.00;6.67;;;;;24.18;73.27;100895.34;5016079;28;45353;-78
2022/09/07 10:58:30;;;;;;;;;6.67;6.67;;;;;24.28;73.71;100907.38;5016292;28;45371;-77
2022/09/07 11:01:10;;;;;;;;;5.33;4.67;;;;;24.33;74.11;100912.81;5019609;28;45744;-77
2022/09/07 11:03:47;;;;;;;;;7.00;3.67;;;;;24.33;72.18;100897.34;5034542;28;45262;-80
2022/09/07 11:06:18;;;;;;;;;6.00;6.00;;;;;24.28;72.49;100893.78;5015943;28;45427;-79
2022/09/07 11:09:38;;;;;;;;;5.00;4.67;;;;;24.30;73.03;100897.88;5017753;28;45408;-80
2022/09/07 11:12:18;;;;;;;;;6.33;5.00;;;;;24.30;72.59;100897.06;5013173;28;45466;-79
2022/09/07 11:15:07;;;;;;;;;4.67;4.67;;;;;24.28;72.27;100888.34;5012768;28;45617;-80
2022/09/07 11:17:51;;;;;;;;;6.00;5.33;;;;;24.23;71.87;100886.44;5032251;28;45368;-81
2022/09/07 11:20:31;;;;;;;;;5.67;4.00;;;;;24.32;71.78;100884.84;5014128;28;45651;-77
2022/09/07 11:23:28;;;;;;;;;6.67;4.00;;;;;24.32;71.43;100876.72;5014306;28;45404;-77
2022/09/07 11:26:27;;;;;;;;;4.67;4.67;;;;;24.34;71.25;100877.25;5019928;28;45694;-78
2022/09/07 11:29:03;;;;;;;;;5.00;3.67;;;;;24.34;71.08;100868.31;5013265;28;46032;-78
2022/09/07 11:31:37;;;;;;;;;4.33;4.33;;;;;24.33;70.49;100875.63;5013853;28;47324;-79
2022/09/07 11:34:15;;;;;;;;;9.33;4.00;;;;;24.26;70.50;100863.34;5015197;28;45386;-79
2022/09/07 11:36:57;;;;;;;;;7.00;7.00;;;;;24.21;70.52;100856.00;5015586;28;45525;-77
2022/09/07 11:39:29;;;;;;;;;4.00;3.67;;;;;24.18;69.70;100861.97;5015877;28;45573;-78
2022/09/07 11:42:09;;;;;;;;;22.50;21.00;;;;;24.18;71.12;100856.56;5014879;28;45388;-79
2022/09/07 11:44:47;;;;;;;;;8.00;7.00;;;;;24.25;71.06;100859.84;5030997;28;45309;-78